Flight Track Log - Related Links

Times and Time Zones

All times are in EDT time to prevent confusion due to time zone crossing. See the GLA154 flight status page for this flight to view local times or setup timezone preferences in your user account.


Time Position Orientation Groundspeed Altitude Reporting Facility
EDT Latitude Longitude Course Direction KTS MPH feet Rate Location/Type
Thu 09:32:47 AM 34.6464 -112.4694 312° West 210 242 6,900  Level Albuquerque Center
Thu 09:33:48 AM 34.6992 -112.4878 344° North 195 224 8,700 1,770 Climbing Albuquerque Center
Thu 09:34:49 AM 34.7475 -112.5275 326° Northwest 208 239 10,500 1,721 Climbing Albuquerque Center
Thu 09:35:50 AM 34.7806 -112.5864 304° West 209 241 12,200 1,623 Climbing Albuquerque Center
Thu 09:36:51 AM 34.8075 -112.6533 296° West 217 250 13,800 1,475 Climbing Albuquerque Center
Thu 09:37:00 AM 34.9501 -112.7333 321° Northwest  Level FlightAware Approximate
Thu 09:37:52 AM 34.8386 -112.7200 300° West 225 259 15,200  Level Albuquerque Center
Thu 09:38:00 AM 34.9990 -112.7876 312° West  Level FlightAware Approximate
Thu 09:38:53 AM 34.8772 -112.8050 299° West 236 272 16,000  Level Albuquerque Center
Thu 09:39:54 AM 34.9114 -112.8883 297° West 264 304 16,000  Level Albuquerque Center
Thu 09:40:55 AM 34.9467 -112.9686 298° West 268 308 16,000  Level Albuquerque Center
Thu 09:41:56 AM 34.9847 -113.0481 300° West 270 311 16,000  Level Albuquerque Center
Thu 09:42:58 AM 35.0133 -113.1331 292° West 270 311 16,000  Level Albuquerque Center
Thu 09:43:59 AM 35.0347 -113.2186 287° West 267 307 16,000  Level Albuquerque Center
Thu 09:45:00 AM 35.0625 -113.3019 292° West 265 305 16,000  Level Albuquerque Center
Thu 09:46:01 AM 35.0989 -113.3814 299° West 266 306 16,000 -639 Level Albuquerque Center
Thu 09:47:02 AM 35.1353 -113.4606 299° West 266 306 14,700 -1,364 Descending Albuquerque Center
Thu 09:48:13 AM 35.1722 -113.5589 295° West 266 306 13,000 -1,444 Descending Los Angeles Center
Thu 09:49:15 AM 35.2011 -113.6419 293° West 267 307 11,500 -1,854 Descending Los Angeles Center
Thu 09:50:16 AM 35.2250 -113.7269 289° West 267 307 9,200 -1,561 Descending Los Angeles Center
Thu 09:51:18 AM 35.2503 -113.8214 288° West 265 305 8,300 -871 Descending Los Angeles Center

Login

Don't have an account? Register now (free) for customized features, flight alerts, and more!